Aeroboteco Virtual Airlines! Uma nuvem a frente.



 INFORMAÇÕES METEOROLÓGICAS
METAR FOR WAWW
ADDS - METARS form results

(1938 UTC 20 May 2022)
Data provider http://aviationweather.gov/metar/data/
 
Forecast for: WAWW
Text: TAF WAWW 201700Z 2018/2106 00000KT 8000 SCT016
Forecast period: 1800 UTC 20 May 2022 to 0000 UTC 21 May 2022
Forecast type: FROM: standard forecast or significant change
Winds: calm
Visibility: 5 miles (8 km)
Ceiling: at least 12,000 feet AGL
Clouds: scattered clouds at 1600 feet AGL
Weather: no significant weather forecast for this period
Text: BECMG 2100/2101 28006KT
Forecast period: 0000 to 0600 UTC 21 May 2022
Forecast type: BECOMING: Conditions expected to become as follows by 0100 UTC 21 May 2022
Winds: from the W (280 degrees) at 7 MPH (6 knots; 3.1 m/s)
Visibility: 5 miles (8 km)
Ceiling: at least 12,000 feet AGL
Clouds: scattered clouds at 1600 feet AGL
Weather: no significant weather forecast for this period

 MAPA DO AEROPORTO

 INFORMAÇÕES DA PISTA
Pista 08 Tamanho da pista 6890 ft Largura da pista 98 ft
Elevação da pista 164 ft Ranhura da pista 0 ft Proa da pista 80
Pista 26 Tamanho da pista 6890 ft Largura da pista 98 ft
Elevação da pista 120 ft Ranhura da pista 0 ft Proa da pista 260

 FREQUÊNCIAS DO AEROPORTO
Tipo TWR Nome TWR Frequência 122.2 MHZ

 AUXÍLIOS DE NAVEGAÇÃO PRÓXIMOS AO AEROPORTO
Tipo VOR-DME Nome Kendari Frequência 115000 KHZ
Tipo NDB Nome Kendari Frequência 215 KHZ